KMKL/MKL METAR and TAF weather

Enter ICAO airport designator
Station Type Date Time Source
KMKL METAR 2021/03/06 04:53 UTC NOAA

KMKL 060453Z AUTO 03010KT 10SM BKN120 06/M04 A3028 RMK AO2 SLP254 T00561044


Station Type Date Time Source
KMKL Decoded METAR 2021/03/06 04:53 UTC NOAA

JACKSON MCKELLAR-SIPES RGNL, TN, United States (KMKL) 35-36N 088-55W 128M
Mar 05, 2021 - 11:53 PM EST / 2021.03.06 0453 UTC
Wind: from the NNE (030 degrees) at 12 MPH (10 KT):0
Visibility: 10 mile(s):0
Sky conditions: mostly cloudy
Temperature: 42.1 F (5.6 C)
Dew Point: 24.1 F (-4.4 C)
Relative Humidity: 48%
Pressure (altimeter): 30.28 in. Hg (1025 hPa)
ob: KMKL 060453Z AUTO 03010KT 10SM BKN120 06/M04 A3028 RMK AO2 SLP254 T00561044
cycle: 5

Station Type Date Time Source
KMKL TAF 2021/03/05 18:28 UTC NOAA

TAF KMKL 051726Z 0518/0618 06011KT P6SM OVC100
FM060100 03006KT P6SM BKN100
FM061500 04009KT P6SM SKC

Example: see airport list